Terminal Aerodrome Forecast
Issued by NWS

Home | Current Version | Previous Version | Graphics & Text | Print | Product List | Glossary On
Versions: 1 2 3 4 5 6 7 8 9 10 11 12 13 14 15 16
000
FTUS43 KABR 082300
TAFATY
TAF
KATY 082330Z 0900/0924 34016G22KT P6SM FEW050
     FM090100 34006KT P6SM SKC
     FM090600 VRB02KT P6SM SKC
     FM091600 33007KT P6SM SCT250=

USA.gov is the U.S. government's official web portal to all federal, state and local government web resources and services.